Nearby METAR Reports

 

KSJC - San Jose, California, USA
Distance from station: NE 9mi, 14km
Updated: Sun, 03-Jul-2022 11:53pm CDT
Partly cloudy
Partly cloudy
 Wind from N
Wind: N 10 mph , 17 km/h, Gust: 21 mph , 33 km/h
Temperature: 59°F , 15°C
Dew Point: 52°F , 11°C
Humidity: 77%
Barometer: 30.01 inHg , 1016.3 hPa
Clouds: Partly cloudy
Visibility: 10 miles , 16 km
Cloud details: Few Clouds 2000 ft
Few Clouds 4000 ft
Partly cloudy 15000 ft
2022/07/04 04:53 KSJC 040453Z 35009G18KT 10SM FEW020 FEW040 SCT150 15/11 A3001 RMK AO2 SLP161 T01500106
KNUQ - Moffett Nas/Mtn, California, USA
Distance from station: N 9mi, 14km
Updated: Tue, 28-Jun-2022 6:55am CDT
NOT Current

 Wind from calm
Wind: Calm
Temperature: 59°F , 15°C
Dew Point: 54°F , 12°C
Humidity: 82%
Barometer: 30.06 inHg , 1017.9 hPa
Visibility: 10 miles , 16 km
2022/06/28 11:55 KNUQ 281155Z AUTO 00000KT 10SM 15/12 A3006 RMK AO2
 
KPAO - Palo Alto, California, USA
Distance from station: NNW 14mi, 23km
Updated: Sun, 03-Jul-2022 10:47pm CDT
NOT Current
Clear
Clear
 Wind from NW
Wind: NW 9 mph , 15 km/h
Temperature: 57°F , 14°C
Dew Point: 48°F , 9°C
Humidity: 72%
Barometer: 30.00 inHg , 1015.9 hPa
Clouds: Clear
Visibility: 10 miles , 16 km
2022/07/04 03:47 KPAO 040347Z 31008KT 10SM SKC 14/09 A3000 RMK LAST
KRHV - San Jose/Reid, California, USA
Distance from station: ENE 12mi, 19km
Updated: Sun, 03-Jul-2022 11:50pm CDT
Few Clouds
Few Clouds
 Wind from NNW
Wind: NNW 10 mph , 17 km/h
Temperature: 59°F , 15°C
Dew Point: 50°F , 10°C
Humidity: 72%
Barometer: 30.01 inHg , 1016.3 hPa
Clouds: Few Clouds
Visibility: 10 miles , 16 km
Cloud details: Few Clouds 2000 ft
2022/07/04 04:50 KRHV 040450Z 34009KT 10SM FEW020 15/10 A3001 RMK LAST
 
KOAK - Oakland, California, USA
Distance from station: NNW 31mi, 50km
Updated: Sun, 03-Jul-2022 11:53pm CDT
Mostly cloudy
Mostly cloudy
 Wind from WNW
Wind: WNW 12 mph , 19 km/h
Temperature: 57°F , 14°C
Dew Point: 50°F , 10°C
Humidity: 77%
Barometer: 30.02 inHg , 1016.6 hPa
Clouds: Mostly cloudy
Visibility: 10 miles , 16 km
Cloud details: Mostly cloudy 1700 ft
Mostly cloudy 3000 ft
Mostly cloudy 12000 ft
2022/07/04 04:53 KOAK 040453Z 29010KT 10SM BKN017 BKN030 BKN120 14/10 A3002 RMK AO2 SLP164 T01440100
KSQL - San Carlos Airpo, California, USA
Distance from station: NW 21mi, 34km
Updated: Mon, 04-Jul-2022 12:15am CDT
Clear
Clear
 Wind from calm
Wind: Calm
Temperature: 57°F , 14°C
Dew Point: 50°F , 10°C
Humidity: 77%
Barometer: 30.02 inHg , 1016.6 hPa
Clouds: Clear
Visibility: 10 miles , 16 km
2022/07/04 05:15 KSQL 040515Z AUTO 00000KT 10SM CLR 14/10 A3002 RMK AO2
 
KSFO - San Francisco, California, USA
Distance from station: NW 30mi, 49km
Updated: Sun, 03-Jul-2022 11:56pm CDT
Partly cloudy
Partly cloudy
 Wind from W
Wind: W 10 mph , 17 km/h
Temperature: 57°F , 14°C
Dew Point: 52°F , 11°C
Humidity: 82%
Barometer: 30.00 inHg , 1015.9 hPa
Clouds: Partly cloudy
Visibility: 10 miles , 16 km
Cloud details: Few Clouds 700 ft
Partly cloudy 1800 ft
2022/07/04 04:56 KSFO 040456Z 28009KT 10SM FEW007 SCT018 14/11 A3000 RMK AO2 SLP158 T01440106
KE16 - San Martin, California, USA
Distance from station: ESE 27mi, 43km
Updated: Mon, 04-Jul-2022 12:15am CDT
Clear
Clear
 Wind from NW
Wind: NW 9 mph , 15 km/h
Temperature: 59°F , 15°C
Dew Point: 48°F , 9°C
Humidity: 68%
Barometer: 30.01 inHg , 1016.3 hPa
Clouds: Clear
Visibility: 10 miles , 16 km
2022/07/04 05:15 KE16 040515Z AUTO 31008KT 10SM CLR 15/09 A3001 RMK AO2 PWINO PNO
 
KWVI - Watsonville, California, USA
Distance from station: SSE 27mi, 44km
Updated: Sun, 03-Jul-2022 11:53pm CDT
Clear
Clear
 Wind from E
Wind: E 8 mph , 13 km/h
Temperature: 54°F , 12°C
Dew Point: 50°F , 10°C
Humidity: 88%
Barometer: 30.00 inHg , 1015.9 hPa
Clouds: Clear
Visibility: 10 miles , 16 km
2022/07/04 04:53 KWVI 040453Z AUTO 10007KT 10SM CLR 12/10 A3000 RMK AO2 SLP159 T01220100
KHAF - Half Moon Bay, California, USA
Distance from station: WNW 31mi, 50km
Updated: Mon, 04-Jul-2022 12:15am CDT
Few Clouds
Few Clouds
 Wind from calm
Wind: Calm
Temperature: 54°F , 12°C
Dew Point: 54°F , 12°C
Humidity: 100%
Barometer: 30.02 inHg , 1016.6 hPa
Clouds: Few Clouds
Visibility: 10 miles , 16 km
Cloud details: Few Clouds 1900 ft
2022/07/04 05:15 KHAF 040515Z AUTO 00000KT 10SM FEW019 12/12 A3002 RMK AO2
 
KHWD - Hayward, California, USA
Distance from station: N 28mi, 44km
Updated: Sun, 03-Jul-2022 11:54pm CDT
Overcast
Overcast
 Wind from W
Wind: W 7 mph , 11 km/h
Temperature: 57°F , 14°C
Dew Point: 52°F , 11°C
Humidity: 82%
Barometer: 30.01 inHg , 1016.3 hPa
Clouds: Overcast
Visibility: 10 miles , 16 km
Cloud details: Overcast 1700 ft
2022/07/04 04:54 KHWD 040454Z AUTO 28006KT 10SM OVC017 14/11 A3001 RMK AO2 SLP171 T01440106
KLVK - Livermore, California, USA
Distance from station: NNE 31mi, 51km
Updated: Sun, 03-Jul-2022 11:53pm CDT
Clear
Clear
 Wind from W
Wind: W 10 mph , 17 km/h
Temperature: 55°F , 13°C
Dew Point: 50°F , 10°C
Humidity: 82%
Barometer: 29.99 inHg , 1015.6 hPa
Clouds: Clear
Visibility: 10 miles , 16 km
2022/07/04 04:53 KLVK 040453Z 28009KT 10SM CLR 13/10 A2999 RMK AO2 SLP153 T01330100